sensor_id;sensor_type;location;lat;lon;timestamp;pressure;altitude;pressure_sealevel;temperature;humidity
66430;BME280;53242;51.694;10.006;2023-06-22T00:00:23;99893.34;;;21.63;75.00
66430;BME280;53242;51.694;10.006;2023-06-22T00:02:46;99892.69;;;21.46;75.66
66430;BME280;53242;51.694;10.006;2023-06-22T00:05:08;99907.38;;;21.38;76.21
66430;BME280;53242;51.694;10.006;2023-06-22T00:07:30;99891.22;;;21.33;76.46
66430;BME280;53242;51.694;10.006;2023-06-22T00:09:53;99901.44;;;21.36;76.12
66430;BME280;53242;51.694;10.006;2023-06-22T00:12:15;99896.91;;;21.42;76.01
66430;BME280;53242;51.694;10.006;2023-06-22T00:14:38;99901.78;;;21.45;76.22
66430;BME280;53242;51.694;10.006;2023-06-22T00:17:00;99897.41;;;21.33;76.50
66430;BME280;53242;51.694;10.006;2023-06-22T00:19:23;99890.38;;;21.27;76.83
66430;BME280;53242;51.694;10.006;2023-06-22T00:21:45;99886.41;;;21.02;78.52
66430;BME280;53242;51.694;10.006;2023-06-22T00:24:09;99879.13;;;21.03;78.49
66430;BME280;53242;51.694;10.006;2023-06-22T00:26:31;99875.50;;;20.87;79.02
66430;BME280;53242;51.694;10.006;2023-06-22T00:28:54;99875.63;;;20.97;79.02
66430;BME280;53242;51.694;10.006;2023-06-22T00:31:16;99869.31;;;20.86;79.13
66430;BME280;53242;51.694;10.006;2023-06-22T00:33:38;99870.25;;;20.97;78.78
66430;BME280;53242;51.694;10.006;2023-06-22T00:36:01;99858.91;;;20.90;78.91
66430;BME280;53242;51.694;10.006;2023-06-22T00:38:26;99856.16;;;21.12;78.12
66430;BME280;53242;51.694;10.006;2023-06-22T00:40:48;99861.19;;;21.03;78.25
66430;BME280;53242;51.694;10.006;2023-06-22T00:43:11;99847.69;;;20.93;78.86
66430;BME280;53242;51.694;10.006;2023-06-22T00:45:33;99842.69;;;21.07;78.44
66430;BME280;53242;51.694;10.006;2023-06-22T00:47:57;99842.44;;;21.09;78.43
66430;BME280;53242;51.694;10.006;2023-06-22T00:50:22;99842.56;;;21.24;77.54
66430;BME280;53242;51.694;10.006;2023-06-22T00:52:44;99834.75;;;21.17;79.33
66430;BME280;53242;51.694;10.006;2023-06-22T00:55:08;99826.69;;;21.17;77.88
66430;BME280;53242;51.694;10.006;2023-06-22T00:57:31;99829.94;;;21.25;77.72
66430;BME280;53242;51.694;10.006;2023-06-22T00:59:54;99838.22;;;21.18;78.45
66430;BME280;53242;51.694;10.006;2023-06-22T01:02:16;99842.31;;;21.26;78.01
66430;BME280;53242;51.694;10.006;2023-06-22T01:04:39;99846.53;;;21.16;78.39
66430;BME280;53242;51.694;10.006;2023-06-22T01:12:19;99828.88;;;21.26;78.68
66430;BME280;53242;51.694;10.006;2023-06-22T01:14:45;99827.66;;;21.06;80.06
66430;BME280;53242;51.694;10.006;2023-06-22T01:17:11;99825.47;;;21.03;80.99
66430;BME280;53242;51.694;10.006;2023-06-22T01:19:51;99824.94;;;21.01;81.19
66430;BME280;53242;51.694;10.006;2023-06-22T01:22:21;99819.75;;;20.94;81.67
66430;BME280;53242;51.694;10.006;2023-06-22T01:25:10;99822.28;;;21.06;81.90
66430;BME280;53242;51.694;10.006;2023-06-22T01:27:40;99816.66;;;21.08;81.05
66430;BME280;53242;51.694;10.006;2023-06-22T01:30:10;99820.81;;;20.66;83.43
66430;BME280;53242;51.694;10.006;2023-06-22T01:32:34;99805.03;;;20.69;83.64
66430;BME280;53242;51.694;10.006;2023-06-22T01:34:58;99810.81;;;20.83;83.28
66430;BME280;53242;51.694;10.006;2023-06-22T01:37:22;99800.63;;;20.80;83.50
66430;BME280;53242;51.694;10.006;2023-06-22T01:39:47;99798.28;;;20.94;82.45
66430;BME280;53242;51.694;10.006;2023-06-22T01:42:11;99805.25;;;20.90;84.52
66430;BME280;53242;51.694;10.006;2023-06-22T01:44:36;99802.94;;;20.72;83.27
66430;BME280;53242;51.694;10.006;2023-06-22T01:46:59;99806.09;;;20.68;83.79
66430;BME280;53242;51.694;10.006;2023-06-22T01:49:22;99805.47;;;20.83;83.17
66430;BME280;53242;51.694;10.006;2023-06-22T01:51:45;99798.81;;;20.91;82.14
66430;BME280;53242;51.694;10.006;2023-06-22T01:54:07;99805.50;;;20.89;81.72
66430;BME280;53242;51.694;10.006;2023-06-22T01:56:30;99809.59;;;20.96;81.43
66430;BME280;53242;51.694;10.006;2023-06-22T01:59:02;99808.53;;;20.97;81.55
66430;BME280;53242;51.694;10.006;2023-06-22T02:01:31;99815.88;;;20.80;81.33
66430;BME280;53242;51.694;10.006;2023-06-22T02:04:10;99814.88;;;20.86;81.50
66430;BME280;53242;51.694;10.006;2023-06-22T02:06:37;99813.84;;;20.65;81.80
66430;BME280;53242;51.694;10.006;2023-06-22T02:09:02;99824.06;;;20.41;81.77
66430;BME280;53242;51.694;10.006;2023-06-22T02:11:26;99821.63;;;20.66;80.84
66430;BME280;53242;51.694;10.006;2023-06-22T02:13:51;99818.84;;;20.56;81.07
66430;BME280;53242;51.694;10.006;2023-06-22T02:16:14;99825.22;;;20.50;81.20
66430;BME280;53242;51.694;10.006;2023-06-22T02:18:37;99826.28;;;20.49;80.83
66430;BME280;53242;51.694;10.006;2023-06-22T02:21:03;99832.25;;;20.56;80.80
66430;BME280;53242;51.694;10.006;2023-06-22T02:23:25;99819.66;;;20.57;80.63
66430;BME280;53242;51.694;10.006;2023-06-22T02:25:48;99826.34;;;20.54;80.91
66430;BME280;53242;51.694;10.006;2023-06-22T02:28:10;99828.00;;;20.60;80.54
66430;BME280;53242;51.694;10.006;2023-06-22T02:30:34;99843.09;;;20.66;80.50
66430;BME280;53242;51.694;10.006;2023-06-22T02:32:56;99843.53;;;20.58;80.86
66430;BME280;53242;51.694;10.006;2023-06-22T02:35:21;99850.97;;;20.51;81.28
66430;BME280;53242;51.694;10.006;2023-06-22T02:37:44;99850.50;;;20.59;80.37
66430;BME280;53242;51.694;10.006;2023-06-22T02:40:07;99846.56;;;20.40;81.51
66430;BME280;53242;51.694;10.006;2023-06-22T02:42:31;99854.13;;;20.48;81.19
66430;BME280;53242;51.694;10.006;2023-06-22T02:44:53;99852.84;;;20.50;81.03
66430;BME280;53242;51.694;10.006;2023-06-22T02:47:16;99853.25;;;20.64;80.51
66430;BME280;53242;51.694;10.006;2023-06-22T02:49:38;99861.94;;;20.27;82.12
66430;BME280;53242;51.694;10.006;2023-06-22T02:52:01;99859.84;;;20.29;82.37
66430;BME280;53242;51.694;10.006;2023-06-22T02:54:23;99868.13;;;20.28;82.78
66430;BME280;53242;51.694;10.006;2023-06-22T02:56:48;99866.25;;;20.28;82.97
66430;BME280;53242;51.694;10.006;2023-06-22T02:59:13;99875.66;;;20.31;82.66
66430;BME280;53242;51.694;10.006;2023-06-22T03:01:36;99870.63;;;20.34;82.42
66430;BME280;53242;51.694;10.006;2023-06-22T03:04:13;99877.28;;;20.32;82.71
66430;BME280;53242;51.694;10.006;2023-06-22T03:06:36;99882.72;;;20.37;82.38
66430;BME280;53242;51.694;10.006;2023-06-22T03:09:03;99885.38;;;20.59;81.82
66430;BME280;53242;51.694;10.006;2023-06-22T03:11:27;99877.06;;;20.61;81.21
66430;BME280;53242;51.694;10.006;2023-06-22T03:13:49;99874.84;;;20.52;81.49
66430;BME280;53242;51.694;10.006;2023-06-22T03:16:14;99870.25;;;20.26;83.32
66430;BME280;53242;51.694;10.006;2023-06-22T03:18:36;99869.56;;;20.35;83.06
66430;BME280;53242;51.694;10.006;2023-06-22T03:20:59;99863.69;;;20.38;82.57
66430;BME280;53242;51.694;10.006;2023-06-22T03:23:22;99854.22;;;20.31;83.12
66430;BME280;53242;51.694;10.006;2023-06-22T03:25:44;99844.69;;;19.96;85.65
66430;BME280;53242;51.694;10.006;2023-06-22T03:28:07;99846.25;;;20.36;83.96
66430;BME280;53242;51.694;10.006;2023-06-22T03:30:29;99844.84;;;20.56;82.84
66430;BME280;53242;51.694;10.006;2023-06-22T03:32:52;99838.88;;;20.70;82.09
66430;BME280;53242;51.694;10.006;2023-06-22T03:35:14;99843.09;;;20.66;82.40
66430;BME280;53242;51.694;10.006;2023-06-22T03:37:37;99844.53;;;20.74;82.63
66430;BME280;53242;51.694;10.006;2023-06-22T03:39:59;99853.06;;;20.71;82.59
66430;BME280;53242;51.694;10.006;2023-06-22T03:42:21;99856.50;;;20.66;82.89
66430;BME280;53242;51.694;10.006;2023-06-22T03:44:44;99858.56;;;20.59;82.86
66430;BME280;53242;51.694;10.006;2023-06-22T03:47:06;99857.19;;;20.57;83.34
66430;BME280;53242;51.694;10.006;2023-06-22T03:49:29;99867.50;;;20.65;82.50
66430;BME280;53242;51.694;10.006;2023-06-22T03:51:52;99862.22;;;20.70;82.00
66430;BME280;53242;51.694;10.006;2023-06-22T03:54:14;99863.63;;;20.78;81.59
66430;BME280;53242;51.694;10.006;2023-06-22T03:56:36;99863.00;;;20.70;82.12
66430;BME280;53242;51.694;10.006;2023-06-22T03:58:59;99862.00;;;20.77;81.95
66430;BME280;53242;51.694;10.006;2023-06-22T04:01:21;99849.97;;;20.79;81.65
66430;BME280;53242;51.694;10.006;2023-06-22T04:03:44;99848.81;;;20.70;82.22
66430;BME280;53242;51.694;10.006;2023-06-22T04:06:06;99855.03;;;20.53;83.04
66430;BME280;53242;51.694;10.006;2023-06-22T04:08:29;99852.03;;;20.50;83.15
66430;BME280;53242;51.694;10.006;2023-06-22T04:10:51;99838.19;;;20.36;83.77
66430;BME280;53242;51.694;10.006;2023-06-22T04:13:14;99839.09;;;20.42;83.05
66430;BME280;53242;51.694;10.006;2023-06-22T04:15:36;99832.75;;;20.53;82.88
66430;BME280;53242;51.694;10.006;2023-06-22T04:17:59;99834.22;;;20.66;82.16
66430;BME280;53242;51.694;10.006;2023-06-22T04:20:21;99835.78;;;20.62;82.42
66430;BME280;53242;51.694;10.006;2023-06-22T04:22:44;99838.72;;;20.60;82.25
66430;BME280;53242;51.694;10.006;2023-06-22T04:25:07;99834.22;;;20.66;81.75
66430;BME280;53242;51.694;10.006;2023-06-22T04:27:30;99841.94;;;20.57;81.90
66430;BME280;53242;51.694;10.006;2023-06-22T04:29:52;99840.63;;;20.60;81.62
66430;BME280;53242;51.694;10.006;2023-06-22T04:32:15;99834.16;;;20.33;82.90
66430;BME280;53242;51.694;10.006;2023-06-22T04:34:37;99829.31;;;20.58;82.15
66430;BME280;53242;51.694;10.006;2023-06-22T04:37:00;99831.84;;;20.69;81.73
66430;BME280;53242;51.694;10.006;2023-06-22T04:39:23;99838.22;;;20.63;82.05
66430;BME280;53242;51.694;10.006;2023-06-22T04:41:46;99821.91;;;20.65;82.00
66430;BME280;53242;51.694;10.006;2023-06-22T04:44:12;99819.34;;;20.75;81.50
66430;BME280;53242;51.694;10.006;2023-06-22T04:46:35;99823.25;;;20.67;81.53
66430;BME280;53242;51.694;10.006;2023-06-22T04:49:00;99818.59;;;20.58;81.54
66430;BME280;53242;51.694;10.006;2023-06-22T04:51:22;99813.69;;;20.49;81.35
66430;BME280;53242;51.694;10.006;2023-06-22T04:53:45;99812.56;;;20.45;81.74
66430;BME280;53242;51.694;10.006;2023-06-22T04:56:08;99811.25;;;20.48;81.33
66430;BME280;53242;51.694;10.006;2023-06-22T04:58:30;99809.19;;;20.55;80.93
66430;BME280;53242;51.694;10.006;2023-06-22T05:00:54;99815.00;;;20.47;82.08
66430;BME280;53242;51.694;10.006;2023-06-22T05:03:19;99816.97;;;20.57;81.32
66430;BME280;53242;51.694;10.006;2023-06-22T05:05:41;99822.38;;;20.62;81.41
66430;BME280;53242;51.694;10.006;2023-06-22T05:08:04;99823.09;;;20.74;80.61
66430;BME280;53242;51.694;10.006;2023-06-22T05:10:29;99821.81;;;20.82;80.29
66430;BME280;53242;51.694;10.006;2023-06-22T05:12:51;99816.41;;;20.77;80.54
66430;BME280;53242;51.694;10.006;2023-06-22T05:15:13;99823.75;;;20.92;79.83
66430;BME280;53242;51.694;10.006;2023-06-22T05:17:37;99823.53;;;20.93;79.82
66430;BME280;53242;51.694;10.006;2023-06-22T05:20:05;99818.97;;;20.94;79.94
66430;BME280;53242;51.694;10.006;2023-06-22T05:22:28;99830.78;;;20.98;79.84
66430;BME280;53242;51.694;10.006;2023-06-22T05:24:50;99833.28;;;20.77;80.76
66430;BME280;53242;51.694;10.006;2023-06-22T05:27:13;99827.13;;;20.77;81.46
66430;BME280;53242;51.694;10.006;2023-06-22T05:29:37;99827.94;;;20.77;81.75
66430;BME280;53242;51.694;10.006;2023-06-22T05:31:59;99823.66;;;20.54;82.73
66430;BME280;53242;51.694;10.006;2023-06-22T05:34:21;99830.22;;;20.68;82.38
66430;BME280;53242;51.694;10.006;2023-06-22T05:36:44;99828.31;;;20.64;82.65
66430;BME280;53242;51.694;10.006;2023-06-22T05:39:13;99835.84;;;20.40;84.05
66430;BME280;53242;51.694;10.006;2023-06-22T05:41:36;99837.00;;;20.49;83.76
66430;BME280;53242;51.694;10.006;2023-06-22T05:43:58;99835.13;;;20.72;82.65
66430;BME280;53242;51.694;10.006;2023-06-22T05:46:20;99835.03;;;20.66;82.91
66430;BME280;53242;51.694;10.006;2023-06-22T05:48:43;99837.34;;;20.80;82.39
66430;BME280;53242;51.694;10.006;2023-06-22T05:51:06;99834.13;;;20.78;82.54
66430;BME280;53242;51.694;10.006;2023-06-22T05:53:29;99838.16;;;20.80;82.62
66430;BME280;53242;51.694;10.006;2023-06-22T05:55:51;99837.66;;;20.83;82.44
66430;BME280;53242;51.694;10.006;2023-06-22T05:58:14;99841.19;;;20.89;82.24
66430;BME280;53242;51.694;10.006;2023-06-22T06:00:36;99838.72;;;20.82;82.33
66430;BME280;53242;51.694;10.006;2023-06-22T06:02:59;99843.09;;;20.94;81.70
66430;BME280;53242;51.694;10.006;2023-06-22T06:05:25;99839.59;;;20.88;81.26
66430;BME280;53242;51.694;10.006;2023-06-22T06:07:50;99843.63;;;20.91;81.02
66430;BME280;53242;51.694;10.006;2023-06-22T06:10:12;99839.41;;;21.00;80.44
66430;BME280;53242;51.694;10.006;2023-06-22T06:12:35;99850.91;;;20.95;80.46
66430;BME280;53242;51.694;10.006;2023-06-22T06:14:57;99851.91;;;21.16;79.66
66430;BME280;53242;51.694;10.006;2023-06-22T06:17:20;99851.97;;;20.94;80.57
66430;BME280;53242;51.694;10.006;2023-06-22T06:19:42;99844.44;;;20.91;81.33
66430;BME280;53242;51.694;10.006;2023-06-22T06:22:05;99847.84;;;20.86;81.67
66430;BME280;53242;51.694;10.006;2023-06-22T06:24:27;99847.06;;;20.86;82.32
66430;BME280;53242;51.694;10.006;2023-06-22T06:26:49;99847.72;;;20.71;83.12
66430;BME280;53242;51.694;10.006;2023-06-22T06:29:12;99847.28;;;20.79;82.64
66430;BME280;53242;51.694;10.006;2023-06-22T06:31:34;99839.63;;;20.93;81.50
66430;BME280;53242;51.694;10.006;2023-06-22T06:33:57;99831.81;;;20.92;81.45
66430;BME280;53242;51.694;10.006;2023-06-22T06:36:19;99824.75;;;21.13;80.51
66430;BME280;53242;51.694;10.006;2023-06-22T06:38:42;99820.13;;;21.41;79.33
66430;BME280;53242;51.694;10.006;2023-06-22T06:41:04;99831.25;;;21.55;79.10
66430;BME280;53242;51.694;10.006;2023-06-22T06:43:26;99829.91;;;22.00;77.27
66430;BME280;53242;51.694;10.006;2023-06-22T06:45:49;99832.91;;;22.19;76.33
66430;BME280;53242;51.694;10.006;2023-06-22T06:48:11;99827.50;;;22.14;76.55
66430;BME280;53242;51.694;10.006;2023-06-22T06:50:34;99826.13;;;22.06;77.40
66430;BME280;53242;51.694;10.006;2023-06-22T06:52:56;99815.03;;;21.82;78.38
66430;BME280;53242;51.694;10.006;2023-06-22T06:55:21;99808.34;;;21.90;77.97
66430;BME280;53242;51.694;10.006;2023-06-22T06:57:46;99810.69;;;22.39;76.16
66430;BME280;53242;51.694;10.006;2023-06-22T07:00:12;99812.63;;;22.59;75.45
66430;BME280;53242;51.694;10.006;2023-06-22T07:02:35;99799.69;;;22.56;75.21
66430;BME280;53242;51.694;10.006;2023-06-22T07:04:58;99803.75;;;22.69;75.27
66430;BME280;53242;51.694;10.006;2023-06-22T07:07:20;99803.22;;;22.57;75.69
66430;BME280;53242;51.694;10.006;2023-06-22T07:09:43;99802.13;;;22.73;75.05
66430;BME280;53242;51.694;10.006;2023-06-22T07:12:06;99801.91;;;22.85;74.96
66430;BME280;53242;51.694;10.006;2023-06-22T07:14:28;99809.69;;;22.97;75.31
66430;BME280;53242;51.694;10.006;2023-06-22T07:16:51;99809.97;;;22.95;75.17
66430;BME280;53242;51.694;10.006;2023-06-22T07:19:13;99807.53;;;23.04;75.30
66430;BME280;53242;51.694;10.006;2023-06-22T07:21:35;99814.28;;;23.22;74.01
66430;BME280;53242;51.694;10.006;2023-06-22T07:23:58;99815.34;;;23.42;73.32
66430;BME280;53242;51.694;10.006;2023-06-22T07:26:20;99813.16;;;23.44;73.52
66430;BME280;53242;51.694;10.006;2023-06-22T07:28:43;99806.41;;;23.52;73.67
66430;BME280;53242;51.694;10.006;2023-06-22T07:31:05;99796.72;;;23.51;73.56
66430;BME280;53242;51.694;10.006;2023-06-22T07:33:28;99798.59;;;23.60;73.10
66430;BME280;53242;51.694;10.006;2023-06-22T07:35:50;99792.06;;;23.82;71.74
66430;BME280;53242;51.694;10.006;2023-06-22T07:38:14;99780.75;;;23.75;72.91
66430;BME280;53242;51.694;10.006;2023-06-22T07:40:37;99787.22;;;23.74;72.55
66430;BME280;53242;51.694;10.006;2023-06-22T07:43:00;99782.06;;;23.83;72.04
66430;BME280;53242;51.694;10.006;2023-06-22T07:45:22;99781.84;;;23.79;72.24
66430;BME280;53242;51.694;10.006;2023-06-22T07:47:45;99780.78;;;23.64;72.50
66430;BME280;53242;51.694;10.006;2023-06-22T07:50:07;99775.97;;;23.56;72.63
66430;BME280;53242;51.694;10.006;2023-06-22T07:52:30;99775.13;;;23.66;72.20
66430;BME280;53242;51.694;10.006;2023-06-22T07:54:53;99767.91;;;23.51;72.74
66430;BME280;53242;51.694;10.006;2023-06-22T07:57:15;99778.41;;;23.53;72.72
66430;BME280;53242;51.694;10.006;2023-06-22T07:59:38;99780.00;;;23.64;72.68
66430;BME280;53242;51.694;10.006;2023-06-22T08:02:00;99779.19;;;23.58;72.64
66430;BME280;53242;51.694;10.006;2023-06-22T08:04:25;99782.72;;;23.59;72.60
66430;BME280;53242;51.694;10.006;2023-06-22T08:06:49;99774.78;;;23.88;71.38
66430;BME280;53242;51.694;10.006;2023-06-22T08:09:11;99782.31;;;23.96;70.60
66430;BME280;53242;51.694;10.006;2023-06-22T08:11:34;99783.91;;;24.03;69.96
66430;BME280;53242;51.694;10.006;2023-06-22T08:13:56;99787.97;;;24.50;68.32
66430;BME280;53242;51.694;10.006;2023-06-22T08:16:20;99795.28;;;24.84;67.36
66430;BME280;53242;51.694;10.006;2023-06-22T08:18:43;99793.25;;;25.05;67.28
66430;BME280;53242;51.694;10.006;2023-06-22T08:21:05;99787.22;;;25.14;66.69
66430;BME280;53242;51.694;10.006;2023-06-22T08:23:28;99782.41;;;25.10;67.04
66430;BME280;53242;51.694;10.006;2023-06-22T08:25:50;99792.91;;;25.66;65.35
66430;BME280;53242;51.694;10.006;2023-06-22T08:28:13;99790.81;;;25.63;64.67
66430;BME280;53242;51.694;10.006;2023-06-22T08:30:35;99785.88;;;25.70;64.71
66430;BME280;53242;51.694;10.006;2023-06-22T08:32:58;99787.75;;;25.69;64.67
66430;BME280;53242;51.694;10.006;2023-06-22T08:35:22;99786.78;;;25.84;65.15
66430;BME280;53242;51.694;10.006;2023-06-22T08:37:44;99778.81;;;25.93;65.32
66430;BME280;53242;51.694;10.006;2023-06-22T08:40:12;99773.38;;;26.17;65.31
66430;BME280;53242;51.694;10.006;2023-06-22T08:42:35;99775.59;;;26.15;63.65
66430;BME280;53242;51.694;10.006;2023-06-22T08:44:58;99769.66;;;26.51;63.10
66430;BME280;53242;51.694;10.006;2023-06-22T08:47:20;99756.03;;;26.56;62.62
66430;BME280;53242;51.694;10.006;2023-06-22T08:49:43;99756.75;;;26.62;62.13
66430;BME280;53242;51.694;10.006;2023-06-22T08:52:06;99738.69;;;26.57;61.97
66430;BME280;53242;51.694;10.006;2023-06-22T08:54:29;99740.25;;;26.45;60.81
66430;BME280;53242;51.694;10.006;2023-06-22T08:56:56;99739.94;;;26.65;61.48
66430;BME280;53242;51.694;10.006;2023-06-22T08:59:19;99730.41;;;27.01;60.76
66430;BME280;53242;51.694;10.006;2023-06-22T09:01:41;99737.66;;;27.19;59.82
66430;BME280;53242;51.694;10.006;2023-06-22T09:04:07;99741.41;;;26.77;60.08
66430;BME280;53242;51.694;10.006;2023-06-22T09:06:31;99742.31;;;26.86;59.90
66430;BME280;53242;51.694;10.006;2023-06-22T09:08:54;99737.50;;;27.44;57.80
66430;BME280;53242;51.694;10.006;2023-06-22T09:11:16;99736.59;;;27.48;56.89
66430;BME280;53242;51.694;10.006;2023-06-22T09:13:39;99739.88;;;27.31;56.99
66430;BME280;53242;51.694;10.006;2023-06-22T09:16:01;99740.03;;;27.07;56.90
66430;BME280;53242;51.694;10.006;2023-06-22T09:18:23;99732.94;;;27.25;57.05
66430;BME280;53242;51.694;10.006;2023-06-22T09:20:46;99728.66;;;27.66;55.91
66430;BME280;53242;51.694;10.006;2023-06-22T09:23:08;99722.13;;;27.53;55.77
66430;BME280;53242;51.694;10.006;2023-06-22T09:25:31;99724.41;;;27.87;55.39
66430;BME280;53242;51.694;10.006;2023-06-22T09:27:53;99720.13;;;27.31;54.60
66430;BME280;53242;51.694;10.006;2023-06-22T09:30:15;99711.31;;;27.89;54.73
66430;BME280;53242;51.694;10.006;2023-06-22T09:32:38;99715.34;;;28.06;54.51
66430;BME280;53242;51.694;10.006;2023-06-22T09:35:05;99703.84;;;27.59;55.34
66430;BME280;53242;51.694;10.006;2023-06-22T09:37:28;99695.25;;;28.07;54.29
66430;BME280;53242;51.694;10.006;2023-06-22T09:39:51;99705.34;;;28.01;54.58
66430;BME280;53242;51.694;10.006;2023-06-22T09:42:13;99705.19;;;28.34;53.72
66430;BME280;53242;51.694;10.006;2023-06-22T09:44:36;99693.31;;;28.08;55.11
66430;BME280;53242;51.694;10.006;2023-06-22T09:46:58;99694.38;;;28.43;53.87
66430;BME280;53242;51.694;10.006;2023-06-22T09:49:20;99695.41;;;28.79;53.42
66430;BME280;53242;51.694;10.006;2023-06-22T09:51:43;99700.59;;;28.44;54.08
66430;BME280;53242;51.694;10.006;2023-06-22T09:54:05;99693.28;;;27.85;54.44
66430;BME280;53242;51.694;10.006;2023-06-22T09:56:28;99685.91;;;27.49;54.67
66430;BME280;53242;51.694;10.006;2023-06-22T09:58:52;99683.03;;;27.68;54.52
66430;BME280;53242;51.694;10.006;2023-06-22T10:01:14;99680.53;;;27.57;54.87
66430;BME280;53242;51.694;10.006;2023-06-22T10:03:37;99677.97;;;28.03;54.84
66430;BME280;53242;51.694;10.006;2023-06-22T10:05:59;99682.22;;;27.81;53.99
66430;BME280;53242;51.694;10.006;2023-06-22T10:08:22;99674.00;;;27.72;53.77
66430;BME280;53242;51.694;10.006;2023-06-22T10:10:44;99678.91;;;28.21;52.94
66430;BME280;53242;51.694;10.006;2023-06-22T10:13:08;99672.09;;;28.32;51.98
66430;BME280;53242;51.694;10.006;2023-06-22T10:15:33;99676.16;;;28.44;51.48
66430;BME280;53242;51.694;10.006;2023-06-22T10:17:56;99683.41;;;28.26;52.28
66430;BME280;53242;51.694;10.006;2023-06-22T10:20:18;99674.16;;;28.58;51.63
66430;BME280;53242;51.694;10.006;2023-06-22T10:22:42;99677.75;;;28.99;50.77
66430;BME280;53242;51.694;10.006;2023-06-22T10:25:05;99673.31;;;29.03;51.30
66430;BME280;53242;51.694;10.006;2023-06-22T10:27:27;99663.47;;;29.25;51.06
66430;BME280;53242;51.694;10.006;2023-06-22T10:29:49;99662.28;;;29.08;50.41
66430;BME280;53242;51.694;10.006;2023-06-22T10:32:12;99664.13;;;28.90;50.04
66430;BME280;53242;51.694;10.006;2023-06-22T10:34:34;99652.72;;;28.70;49.27
66430;BME280;53242;51.694;10.006;2023-06-22T10:36:57;99654.88;;;28.91;48.85
66430;BME280;53242;51.694;10.006;2023-06-22T10:39:19;99650.56;;;28.90;48.83
66430;BME280;53242;51.694;10.006;2023-06-22T10:41:41;99649.59;;;28.86;49.03
66430;BME280;53242;51.694;10.006;2023-06-22T10:44:04;99644.94;;;28.86;49.63
66430;BME280;53242;51.694;10.006;2023-06-22T10:46:26;99641.06;;;28.70;49.35
66430;BME280;53242;51.694;10.006;2023-06-22T10:48:49;99628.19;;;28.84;48.64
66430;BME280;53242;51.694;10.006;2023-06-22T10:51:12;99634.22;;;29.22;48.56
66430;BME280;53242;51.694;10.006;2023-06-22T10:53:34;99623.97;;;29.10;48.45
66430;BME280;53242;51.694;10.006;2023-06-22T10:55:57;99624.59;;;29.15;48.96
66430;BME280;53242;51.694;10.006;2023-06-22T10:58:19;99611.97;;;29.19;48.40
66430;BME280;53242;51.694;10.006;2023-06-22T11:00:42;99616.72;;;29.63;47.38
66430;BME280;53242;51.694;10.006;2023-06-22T11:03:04;99621.97;;;29.59;46.85
66430;BME280;53242;51.694;10.006;2023-06-22T11:05:26;99612.09;;;29.90;46.77
66430;BME280;53242;51.694;10.006;2023-06-22T11:07:49;99620.72;;;30.00;46.55
66430;BME280;53242;51.694;10.006;2023-06-22T11:10:12;99612.84;;;30.16;46.49
66430;BME280;53242;51.694;10.006;2023-06-22T11:12:35;99608.03;;;30.31;46.30
66430;BME280;53242;51.694;10.006;2023-06-22T11:14:57;99606.09;;;30.23;46.36
66430;BME280;53242;51.694;10.006;2023-06-22T11:17:20;99607.91;;;29.75;46.37
66430;BME280;53242;51.694;10.006;2023-06-22T11:19:44;99600.38;;;30.15;45.84
66430;BME280;53242;51.694;10.006;2023-06-22T11:22:06;99586.94;;;30.10;46.17
66430;BME280;53242;51.694;10.006;2023-06-22T11:24:29;99585.03;;;29.93;46.24
66430;BME280;53242;51.694;10.006;2023-06-22T11:26:51;99581.66;;;29.96;46.32
66430;BME280;53242;51.694;10.006;2023-06-22T11:29:14;99572.53;;;29.75;45.38
66430;BME280;53242;51.694;10.006;2023-06-22T11:31:36;99574.31;;;29.71;45.59
66430;BME280;53242;51.694;10.006;2023-06-22T11:33:59;99570.13;;;29.56;45.79
66430;BME280;53242;51.694;10.006;2023-06-22T11:36:21;99562.63;;;29.52;45.82
66430;BME280;53242;51.694;10.006;2023-06-22T11:38:43;99562.47;;;29.58;44.67
66430;BME280;53242;51.694;10.006;2023-06-22T11:41:06;99556.28;;;28.99;46.59
66430;BME280;53242;51.694;10.006;2023-06-22T11:43:29;99550.81;;;29.40;45.68
66430;BME280;53242;51.694;10.006;2023-06-22T11:45:52;99544.72;;;29.51;45.75
66430;BME280;53242;51.694;10.006;2023-06-22T11:48:14;99535.63;;;29.56;45.85
66430;BME280;53242;51.694;10.006;2023-06-22T11:50:37;99538.94;;;29.97;44.64
66430;BME280;53242;51.694;10.006;2023-06-22T11:52:59;99531.56;;;29.10;45.67
66430;BME280;53242;51.694;10.006;2023-06-22T11:55:22;99526.66;;;29.29;45.77
66430;BME280;53242;51.694;10.006;2023-06-22T11:58:02;99524.09;;;29.50;45.14
66430;BME280;53242;51.694;10.006;2023-06-22T12:00:26;99521.97;;;29.65;46.69
66430;BME280;53242;51.694;10.006;2023-06-22T12:02:48;99509.88;;;29.53;46.66
66430;BME280;53242;51.694;10.006;2023-06-22T12:05:10;99515.72;;;29.03;47.01
66430;BME280;53242;51.694;10.006;2023-06-22T12:07:33;99509.31;;;28.90;46.86
66430;BME280;53242;51.694;10.006;2023-06-22T12:09:55;99511.63;;;29.32;45.86
66430;BME280;53242;51.694;10.006;2023-06-22T12:12:18;99510.75;;;29.75;45.22
66430;BME280;53242;51.694;10.006;2023-06-22T12:14:40;99500.94;;;30.18;45.84
66430;BME280;53242;51.694;10.006;2023-06-22T12:17:03;99503.03;;;30.12;45.37
66430;BME280;53242;51.694;10.006;2023-06-22T12:19:25;99491.88;;;29.96;45.30
66430;BME280;53242;51.694;10.006;2023-06-22T12:21:48;99491.50;;;30.54;44.16
66430;BME280;53242;51.694;10.006;2023-06-22T12:24:10;99486.38;;;30.53;43.69
66430;BME280;53242;51.694;10.006;2023-06-22T12:26:33;99482.41;;;30.41;43.61
66430;BME280;53242;51.694;10.006;2023-06-22T12:28:55;99485.06;;;29.55;44.68
66430;BME280;53242;51.694;10.006;2023-06-22T12:31:17;99478.28;;;29.96;44.13
66430;BME280;53242;51.694;10.006;2023-06-22T12:33:40;99491.13;;;29.52;44.81